Time;durP1;ratioP1;P1;durP2;ratioP2;P2;SDS_P1;SDS_P2;PMS_P1;PMS_P2;Temp;Humidity;BMP_temperature;BMP_pressure;BME280_temperature;BME280_humidity;BME280_pressure;Samples;Min_cycle;Max_cycle;Signal;HPM_P1;HPM_P2
2021/09/18 00:01:36;;;;;;;13.50;12.20;;;17.40;77.80;;;;;;5035318;28;20470;-76
2021/09/18 00:04:05;;;;;;;14.50;13.03;;;17.30;77.50;;;;;;5035333;28;20458;-76
2021/09/18 00:06:32;;;;;;;13.27;11.90;;;17.20;77.70;;;;;;5035390;28;20431;-76
2021/09/18 00:08:59;;;;;;;14.97;12.63;;;17.20;77.90;;;;;;5035254;28;20457;-76
2021/09/18 00:11:25;;;;;;;12.70;11.30;;;17.10;78.00;;;;;;5035198;28;20473;-76
2021/09/18 00:13:53;;;;;;;12.67;11.50;;;17.10;78.30;;;;;;5035161;28;20452;-76
2021/09/18 00:16:20;;;;;;;13.17;11.97;;;17.10;78.00;;;;;;5035069;28;20474;-76
2021/09/18 00:18:47;;;;;;;13.97;12.70;;;17.10;78.10;;;;;;5035402;28;20845;-76
2021/09/18 00:21:14;;;;;;;15.30;12.30;;;17.10;77.50;;;;;;5035433;28;20466;-76
2021/09/18 00:23:41;;;;;;;12.77;11.47;;;17.10;77.60;;;;;;5034963;28;20447;-76
2021/09/18 00:26:07;;;;;;;13.47;12.07;;;17.00;77.70;;;;;;5034932;28;20451;-76
2021/09/18 00:28:35;;;;;;;12.87;11.60;;;17.10;77.90;;;;;;5034854;28;20451;-77
2021/09/18 00:31:03;;;;;;;13.87;11.70;;;17.10;77.90;;;;;;5034650;28;20494;-76
2021/09/18 00:33:29;;;;;;;14.03;12.53;;;17.10;78.50;;;;;;5034634;28;20454;-76
2021/09/18 00:35:56;;;;;;;13.60;12.20;;;17.10;78.20;;;;;;5034259;28;20554;-76
2021/09/18 00:38:23;;;;;;;12.93;11.80;;;17.10;78.30;;;;;;5034694;28;20808;-76
2021/09/18 00:40:49;;;;;;;13.33;12.03;;;17.10;78.40;;;;;;5034575;28;20474;-76
2021/09/18 00:43:16;;;;;;;14.17;12.77;;;17.10;78.20;;;;;;5034613;28;20442;-76
2021/09/18 00:45:43;;;;;;;14.07;12.57;;;17.00;78.20;;;;;;5034222;28;20966;-76
2021/09/18 00:48:11;;;;;;;12.73;11.43;;;17.00;78.10;;;;;;5034532;28;20517;-76
2021/09/18 00:50:38;;;;;;;13.63;12.23;;;17.00;78.20;;;;;;5034401;28;20466;-76
2021/09/18 00:53:05;;;;;;;12.50;11.40;;;17.00;78.60;;;;;;5034411;28;20442;-76
2021/09/18 00:55:32;;;;;;;15.37;13.87;;;17.00;78.60;;;;;;5034296;28;20532;-76
2021/09/18 00:57:59;;;;;;;14.97;13.47;;;17.00;78.30;;;;;;5034033;28;20446;-76
2021/09/18 01:00:25;;;;;;;13.90;12.60;;;16.90;78.70;;;;;;5034244;28;20497;-76
2021/09/18 01:02:52;;;;;;;13.50;12.10;;;16.90;78.60;;;;;;5034199;28;20449;-76
2021/09/18 01:05:21;;;;;;;14.83;12.50;;;16.80;78.20;;;;;;5034188;28;20438;-76
2021/09/18 01:07:49;;;;;;;13.53;12.23;;;16.80;78.30;;;;;;5034173;28;20454;-76
2021/09/18 01:10:16;;;;;;;12.73;11.40;;;16.80;78.40;;;;;;5034027;28;20470;-76
2021/09/18 01:13:03;;;;;;;11.97;10.73;;;16.80;78.70;;;;;;5034039;28;20450;-76
2021/09/18 01:15:32;;;;;;;17.27;12.10;;;16.70;78.30;;;;;;5034025;28;20512;-76
2021/09/18 01:17:59;;;;;;;15.53;12.87;;;16.80;78.40;;;;;;5034020;28;20483;-76
2021/09/18 01:20:27;;;;;;;20.10;11.90;;;16.70;78.10;;;;;;5033908;28;20462;-76
2021/09/18 01:22:57;;;;;;;14.53;12.50;;;16.70;77.80;;;;;;5033921;28;20453;-76
2021/09/18 01:25:26;;;;;;;16.57;12.20;;;16.60;77.80;;;;;;5033875;28;20442;-76
2021/09/18 01:27:53;;;;;;;15.07;13.50;;;16.50;78.00;;;;;;5033845;28;20451;-76
2021/09/18 01:30:21;;;;;;;13.17;11.93;;;16.40;78.60;;;;;;5033603;28;20481;-76
2021/09/18 01:32:48;;;;;;;15.00;12.70;;;16.50;79.10;;;;;;5033832;28;20848;-76
2021/09/18 01:35:15;;;;;;;15.17;13.63;;;16.50;79.20;;;;;;5033743;28;20454;-76
2021/09/18 01:37:46;;;;;;;14.27;12.40;;;16.40;79.20;;;;;;5033712;28;20451;-76
2021/09/18 01:40:15;;;;;;;15.00;13.57;;;16.40;79.20;;;;;;5033662;28;20609;-76
2021/09/18 01:42:46;;;;;;;17.37;13.43;;;16.40;78.90;;;;;;5033676;28;20501;-76
2021/09/18 01:45:14;;;;;;;14.93;13.17;;;16.40;79.20;;;;;;5033356;28;20450;-76
2021/09/18 01:47:45;;;;;;;14.40;12.57;;;16.40;79.40;;;;;;5032976;28;20458;-76
2021/09/18 01:50:25;;;;;;;13.97;12.60;;;16.40;79.00;;;;;;5033472;28;20458;-76
2021/09/18 01:52:52;;;;;;;13.77;12.37;;;16.40;79.10;;;;;;5033245;28;20873;-76
2021/09/18 01:55:19;;;;;;;15.23;13.63;;;16.30;78.80;;;;;;5033341;28;20453;-76
2021/09/18 01:57:50;;;;;;;13.80;12.30;;;16.30;78.80;;;;;;5033412;28;20447;-76
2021/09/18 02:00:17;;;;;;;14.83;13.23;;;16.30;78.60;;;;;;5033677;28;20466;-76
2021/09/18 02:02:44;;;;;;;15.10;13.60;;;16.20;78.90;;;;;;5033406;28;20450;-76
2021/09/18 02:05:12;;;;;;;15.23;13.63;;;16.20;79.30;;;;;;5033103;28;20451;-76
2021/09/18 02:07:39;;;;;;;14.43;13.07;;;16.30;79.60;;;;;;5033379;28;20789;-76
2021/09/18 02:10:08;;;;;;;13.57;12.27;;;16.20;79.20;;;;;;5033507;28;20458;-76
2021/09/18 02:12:36;;;;;;;16.13;12.47;;;16.30;79.30;;;;;;5033329;28;20446;-76
2021/09/18 02:15:05;;;;;;;22.33;14.00;;;16.20;79.10;;;;;;5033253;28;20449;-76
2021/09/18 02:17:32;;;;;;;15.97;12.37;;;16.30;79.30;;;;;;5032856;28;20482;-76
2021/09/18 02:19:58;;;;;;;17.47;12.73;;;16.20;79.40;;;;;;5033494;28;20466;-76
2021/09/18 02:22:25;;;;;;;15.90;12.37;;;16.20;79.10;;;;;;5033228;28;20442;-76
2021/09/18 02:24:52;;;;;;;18.20;13.40;;;16.10;78.90;;;;;;5033198;28;20504;-76
2021/09/18 02:27:19;;;;;;;16.90;13.60;;;16.20;79.20;;;;;;5033155;28;20496;-76
2021/09/18 02:29:45;;;;;;;16.87;12.57;;;16.10;79.10;;;;;;5032988;28;20449;-76
2021/09/18 02:32:13;;;;;;;17.43;12.47;;;16.10;79.10;;;;;;5033193;28;20782;-76
2021/09/18 02:34:40;;;;;;;18.20;13.33;;;16.10;79.20;;;;;;5032886;28;20922;-76
2021/09/18 02:37:07;;;;;;;17.73;13.03;;;16.10;79.20;;;;;;5033066;28;20482;-76
2021/09/18 02:39:33;;;;;;;20.20;13.00;;;16.00;79.20;;;;;;5033025;28;20453;-76
2021/09/18 02:42:00;;;;;;;16.87;13.50;;;16.10;79.30;;;;;;5032737;28;21023;-76
2021/09/18 02:44:27;;;;;;;16.03;12.73;;;16.10;79.40;;;;;;5032990;28;20446;-76
2021/09/18 02:46:54;;;;;;;16.90;12.37;;;16.00;79.40;;;;;;5032704;28;20446;-76
2021/09/18 02:49:22;;;;;;;17.00;12.60;;;16.00;79.20;;;;;;5033009;28;20454;-76
2021/09/18 02:51:48;;;;;;;18.37;13.20;;;16.00;79.20;;;;;;5032876;28;20474;-76
2021/09/18 02:54:15;;;;;;;15.17;13.67;;;16.00;79.30;;;;;;5032929;28;20469;-76
2021/09/18 02:56:42;;;;;;;14.40;12.13;;;16.00;79.40;;;;;;5033100;28;20478;-76
2021/09/18 02:59:09;;;;;;;17.07;12.80;;;16.00;79.40;;;;;;5036094;28;20928;-76
2021/09/18 03:01:36;;;;;;;14.80;13.30;;;16.00;79.50;;;;;;5036470;28;20500;-76
2021/09/18 03:04:03;;;;;;;17.33;12.20;;;15.90;79.40;;;;;;5036463;28;20442;-76
2021/09/18 03:06:31;;;;;;;16.70;13.13;;;15.80;79.20;;;;;;5036468;28;20449;-76
2021/09/18 03:08:58;;;;;;;16.90;13.40;;;15.80;79.00;;;;;;5036443;28;20850;-76
2021/09/18 03:11:24;;;;;;;14.23;12.73;;;15.80;79.00;;;;;;5036318;28;20470;-76
2021/09/18 03:13:51;;;;;;;14.13;12.73;;;15.80;78.90;;;;;;5036035;28;20836;-76
2021/09/18 03:16:18;;;;;;;18.43;13.30;;;15.70;78.70;;;;;;5036194;28;20482;-76
2021/09/18 03:18:45;;;;;;;14.73;13.23;;;15.70;79.10;;;;;;5035956;28;20955;-76
2021/09/18 03:21:12;;;;;;;13.03;11.83;;;15.70;78.90;;;;;;5036960;28;20467;-76
2021/09/18 03:23:40;;;;;;;15.60;13.97;;;15.70;78.70;;;;;;5035853;28;20446;-75
2021/09/18 03:26:07;;;;;;;18.10;12.87;;;15.70;78.80;;;;;;5036336;28;20438;-76
2021/09/18 03:28:34;;;;;;;14.63;13.23;;;15.70;78.90;;;;;;5036036;28;20446;-76
2021/09/18 03:31:00;;;;;;;17.57;15.73;;;15.70;79.50;;;;;;5035625;28;20493;-76
2021/09/18 03:33:27;;;;;;;15.73;12.10;;;15.60;78.50;;;;;;5035965;28;20785;-76
2021/09/18 03:35:54;;;;;;;14.20;12.37;;;15.60;78.70;;;;;;5035829;28;20454;-76
2021/09/18 03:38:20;;;;;;;14.30;12.90;;;15.60;78.70;;;;;;5035553;28;20442;-76
2021/09/18 03:40:48;;;;;;;17.20;13.93;;;15.60;78.90;;;;;;5036047;28;20581;-76
2021/09/18 03:43:15;;;;;;;20.40;13.33;;;15.60;78.90;;;;;;5035801;28;20793;-76
2021/09/18 03:45:42;;;;;;;14.77;12.83;;;15.50;79.00;;;;;;5035716;28;20457;-76
2021/09/18 03:48:08;;;;;;;15.40;12.33;;;15.50;78.80;;;;;;5035672;28;20859;-76
2021/09/18 03:50:35;;;;;;;13.40;11.97;;;15.50;79.00;;;;;;5035504;28;20458;-76
2021/09/18 03:53:02;;;;;;;15.77;12.57;;;15.50;78.90;;;;;;5035589;28;20446;-76
2021/09/18 03:55:29;;;;;;;14.87;13.33;;;15.50;78.80;;;;;;5035598;28;20454;-76
2021/09/18 03:57:57;;;;;;;16.30;13.97;;;15.50;78.90;;;;;;5035439;28;20536;-76
2021/09/18 04:00:23;;;;;;;18.13;12.97;;;15.50;78.90;;;;;;5035040;28;20877;-76
2021/09/18 04:02:50;;;;;;;21.63;13.90;;;15.50;79.10;;;;;;5035407;28;20454;-76
2021/09/18 04:05:17;;;;;;;19.57;13.80;;;15.40;78.70;;;;;;5035574;28;20443;-76
2021/09/18 04:07:43;;;;;;;18.07;15.20;;;15.40;79.00;;;;;;5035313;28;20478;-76
2021/09/18 04:10:11;;;;;;;17.50;15.70;;;15.30;78.80;;;;;;5034208;28;20891;-76
2021/09/18 04:12:39;;;;;;;31.00;18.57;;;15.30;79.30;;;;;;5034972;28;20952;-76
2021/09/18 04:15:08;;;;;;;25.40;19.47;;;15.30;79.50;;;;;;5034912;28;20457;-76
2021/09/18 04:17:35;;;;;;;26.20;19.57;;;15.20;79.70;;;;;;5035049;28;20482;-76
2021/09/18 04:20:01;;;;;;;22.70;19.37;;;15.20;79.60;;;;;;5035001;28;20466;-76
2021/09/18 04:22:28;;;;;;;21.47;19.20;;;15.20;79.80;;;;;;5035048;28;20441;-76
2021/09/18 04:24:55;;;;;;;22.63;19.40;;;15.20;79.60;;;;;;5035781;28;20457;-76
2021/09/18 04:27:21;;;;;;;18.57;16.70;;;15.20;80.60;;;;;;5035215;28;20439;-76
2021/09/18 04:29:48;;;;;;;19.10;17.30;;;15.20;80.10;;;;;;5034710;28;20451;-76
2021/09/18 04:32:16;;;;;;;16.70;15.10;;;15.20;79.80;;;;;;5034884;28;20435;-76
2021/09/18 04:34:43;;;;;;;16.37;14.77;;;15.20;79.80;;;;;;5034758;28;20442;-76
2021/09/18 04:37:10;;;;;;;17.53;15.90;;;15.20;79.60;;;;;;5034717;28;20490;-76
2021/09/18 04:39:36;;;;;;;16.37;14.77;;;15.20;79.70;;;;;;5034352;28;20457;-76
2021/09/18 04:42:04;;;;;;;18.70;16.80;;;15.20;79.60;;;;;;5034900;28;20475;-76
2021/09/18 04:44:30;;;;;;;17.73;15.20;;;15.10;79.50;;;;;;5034350;28;20928;-76
2021/09/18 04:46:57;;;;;;;18.30;15.27;;;15.10;79.40;;;;;;5034812;28;20451;-76
2021/09/18 04:49:25;;;;;;;16.43;14.93;;;15.10;79.20;;;;;;5035037;28;20446;-76
2021/09/18 04:51:52;;;;;;;17.47;15.97;;;15.10;79.30;;;;;;5034402;28;20467;-76
2021/09/18 04:54:18;;;;;;;17.47;15.60;;;15.00;79.30;;;;;;5034411;28;20454;-76
2021/09/18 04:56:45;;;;;;;17.33;15.80;;;15.00;79.30;;;;;;5034324;28;20485;-76
2021/09/18 04:59:12;;;;;;;15.60;14.10;;;15.00;79.20;;;;;;5034339;28;20454;-76
2021/09/18 05:01:38;;;;;;;18.00;16.20;;;15.00;79.10;;;;;;5034233;28;20512;-76
2021/09/18 05:04:05;;;;;;;19.13;17.33;;;14.90;78.90;;;;;;5034235;28;20450;-76
2021/09/18 05:06:33;;;;;;;19.30;17.30;;;14.80;78.50;;;;;;5034253;28;20427;-76
2021/09/18 05:09:00;;;;;;;24.93;18.00;;;14.80;78.70;;;;;;5033856;28;20936;-76
2021/09/18 05:11:27;;;;;;;19.10;17.20;;;14.70;79.00;;;;;;5033754;28;20975;-76
2021/09/18 05:13:54;;;;;;;18.40;16.70;;;14.60;80.10;;;;;;5034044;28;20454;-76
2021/09/18 05:16:20;;;;;;;19.33;17.33;;;14.60;80.30;;;;;;5033960;28;20546;-75
2021/09/18 05:18:47;;;;;;;17.33;15.53;;;14.60;80.50;;;;;;5033988;28;20469;-76
2021/09/18 05:21:14;;;;;;;17.63;16.10;;;14.60;80.60;;;;;;5033412;28;20470;-76
2021/09/18 05:23:42;;;;;;;16.87;15.23;;;14.60;80.50;;;;;;5033932;28;20831;-76
2021/09/18 05:26:09;;;;;;;17.40;15.73;;;14.60;80.60;;;;;;5033879;28;20446;-76
2021/09/18 05:28:35;;;;;;;24.13;17.27;;;14.70;80.50;;;;;;5033831;28;20449;-75
2021/09/18 05:31:02;;;;;;;19.20;16.13;;;14.70;80.40;;;;;;5033584;28;20501;-76
2021/09/18 05:33:29;;;;;;;17.93;16.17;;;14.70;80.40;;;;;;5033776;28;20442;-76
2021/09/18 05:35:56;;;;;;;17.63;15.93;;;14.70;80.40;;;;;;5033448;28;20936;-76
2021/09/18 05:38:22;;;;;;;18.90;16.00;;;14.70;80.50;;;;;;5033379;28;20477;-76
2021/09/18 05:40:50;;;;;;;18.00;15.17;;;14.70;80.70;;;;;;5033606;28;20478;-76
2021/09/18 05:43:17;;;;;;;18.40;15.90;;;14.80;80.90;;;;;;5033648;28;20442;-76
2021/09/18 05:45:44;;;;;;;18.23;16.40;;;14.80;80.80;;;;;;5033599;28;20822;-76
2021/09/18 05:48:11;;;;;;;17.43;15.63;;;14.80;80.90;;;;;;5033604;28;20427;-76
2021/09/18 05:50:37;;;;;;;18.40;16.20;;;14.80;80.90;;;;;;5033729;28;20468;-76
2021/09/18 05:53:04;;;;;;;18.63;16.87;;;14.90;81.30;;;;;;5033534;28;20450;-76
2021/09/18 05:55:31;;;;;;;17.10;15.07;;;14.90;81.40;;;;;;5033734;28;20447;-76
2021/09/18 05:57:59;;;;;;;21.90;18.00;;;14.90;82.40;;;;;;5033362;28;20474;-76
2021/09/18 06:00:25;;;;;;;22.43;16.70;;;14.90;82.10;;;;;;5033050;28;20979;-76
2021/09/18 06:02:52;;;;;;;20.60;16.27;;;14.90;81.80;;;;;;5033412;28;20450;-76
2021/09/18 06:05:19;;;;;;;18.83;16.90;;;15.00;82.00;;;;;;5033650;28;20442;-76
2021/09/18 06:07:46;;;;;;;28.37;19.27;;;15.00;82.10;;;;;;5033360;28;20443;-76
2021/09/18 06:10:13;;;;;;;24.40;19.40;;;15.10;82.60;;;;;;5033253;28;20470;-76
2021/09/18 06:12:40;;;;;;;24.27;19.07;;;15.10;82.70;;;;;;5033288;28;20446;-76
2021/09/18 06:15:09;;;;;;;21.47;19.20;;;15.10;83.10;;;;;;5027740;28;20458;-76
2021/09/18 06:17:36;;;;;;;28.13;21.03;;;15.20;83.90;;;;;;5033192;28;20482;-76
2021/09/18 06:20:03;;;;;;;30.93;22.57;;;15.30;84.90;;;;;;5033248;28;20463;-76
2021/09/18 06:22:30;;;;;;;39.63;28.00;;;15.30;85.90;;;;;;5033033;28;20788;-76
2021/09/18 06:24:57;;;;;;;55.10;33.23;;;15.40;86.60;;;;;;5033234;28;20438;-76
2021/09/18 06:27:23;;;;;;;69.87;36.83;;;15.50;87.60;;;;;;5033161;28;20438;-76
2021/09/18 06:29:50;;;;;;;56.13;38.13;;;15.50;88.40;;;;;;5033059;28;20502;-76
2021/09/18 06:32:18;;;;;;;44.27;34.70;;;15.60;88.90;;;;;;5033840;28;20431;-77
2021/09/18 06:34:45;;;;;;;66.50;39.00;;;15.70;89.30;;;;;;5037136;28;20820;-76
2021/09/18 06:37:11;;;;;;;42.33;34.10;;;15.80;89.50;;;;;;5037259;28;20462;-76
2021/09/18 06:39:38;;;;;;;45.67;38.50;;;15.80;89.60;;;;;;5036923;28;20450;-77
2021/09/18 06:42:05;;;;;;;43.17;36.93;;;16.00;89.80;;;;;;5036658;28;20473;-76
2021/09/18 06:44:32;;;;;;;47.47;32.93;;;16.00;89.90;;;;;;5036881;28;20847;-76
2021/09/18 06:46:59;;;;;;;40.60;33.60;;;16.10;90.00;;;;;;5037308;28;20450;-76
2021/09/18 06:49:27;;;;;;;41.40;37.03;;;16.20;89.90;;;;;;5036462;28;20485;-76
2021/09/18 06:51:54;;;;;;;38.07;33.67;;;16.30;89.70;;;;;;5036735;28;20470;-76
2021/09/18 06:54:20;;;;;;;40.20;32.60;;;16.40;89.70;;;;;;5036711;28;20446;-76
2021/09/18 06:56:47;;;;;;;37.13;32.47;;;16.40;89.40;;;;;;5036735;28;20793;-76
2021/09/18 06:59:14;;;;;;;36.60;30.83;;;16.50;88.90;;;;;;5036536;28;20494;-76
2021/09/18 07:01:40;;;;;;;41.13;36.63;;;16.60;88.60;;;;;;5037537;28;20519;-76
2021/09/18 07:04:07;;;;;;;37.90;33.60;;;16.70;88.30;;;;;;5036231;28;20940;-76
2021/09/18 07:06:35;;;;;;;42.80;37.83;;;16.70;87.90;;;;;;5036697;28;20442;-77
2021/09/18 07:09:02;;;;;;;44.07;35.50;;;16.80;87.80;;;;;;5036419;28;20442;-76
2021/09/18 07:11:29;;;;;;;43.60;34.97;;;16.80;87.50;;;;;;5036320;28;20473;-76
2021/09/18 07:13:55;;;;;;;46.33;37.90;;;16.90;87.30;;;;;;5036383;28;20435;-77
2021/09/18 07:16:22;;;;;;;18.47;15.40;;;17.00;87.60;;;;;;5036015;28;20453;-74
2021/09/18 07:18:49;;;;;;;26.40;22.37;;;17.00;86.80;;;;;;5036211;28;20478;-74
2021/09/18 07:21:16;;;;;;;40.77;27.17;;;17.10;83.40;;;;;;5036204;28;20466;-74
2021/09/18 07:23:45;;;;;;;36.50;27.00;;;17.30;82.70;;;;;;5036198;28;20446;-74
2021/09/18 07:26:12;;;;;;;33.57;28.30;;;17.40;82.30;;;;;;5036186;28;20450;-74
2021/09/18 07:28:39;;;;;;;45.73;30.70;;;17.60;81.90;;;;;;5036073;28;20533;-74
2021/09/18 07:31:06;;;;;;;36.60;32.70;;;17.80;81.90;;;;;;5035611;28;20507;-74
2021/09/18 07:33:32;;;;;;;38.27;28.57;;;17.90;81.70;;;;;;5035845;28;20450;-74
2021/09/18 07:35:59;;;;;;;40.90;31.37;;;18.00;81.40;;;;;;5035913;28;20497;-74
2021/09/18 07:38:26;;;;;;;34.97;30.13;;;18.10;81.00;;;;;;5035805;28;20493;-74
2021/09/18 07:40:55;;;;;;;43.60;35.03;;;18.20;80.90;;;;;;5035682;28;20470;-73
2021/09/18 07:43:22;;;;;;;45.33;37.67;;;18.40;80.90;;;;;;5035312;28;20959;-74
2021/09/18 07:45:48;;;;;;;44.00;38.10;;;18.50;81.20;;;;;;5036011;28;20442;-74
2021/09/18 07:48:15;;;;;;;46.43;35.97;;;18.50;81.70;;;;;;5035714;28;20446;-73
2021/09/18 07:50:42;;;;;;;40.67;35.33;;;18.60;81.60;;;;;;5035490;28;20470;-73
2021/09/18 07:53:09;;;;;;;48.60;43.40;;;18.80;81.50;;;;;;5035316;28;20936;-73
2021/09/18 07:55:35;;;;;;;45.67;37.30;;;18.90;81.80;;;;;;5035243;28;20473;-74
2021/09/18 07:58:03;;;;;;;43.80;38.23;;;19.00;81.30;;;;;;5035168;28;20850;-74
2021/09/18 08:00:31;;;;;;;42.43;36.63;;;19.10;81.30;;;;;;5035257;28;20474;-74
2021/09/18 08:02:57;;;;;;;42.53;35.40;;;19.20;81.30;;;;;;5035418;28;20444;-74
2021/09/18 08:05:24;;;;;;;48.93;39.70;;;19.30;81.00;;;;;;5035320;28;20469;-74
2021/09/18 08:07:51;;;;;;;44.47;39.63;;;19.40;81.00;;;;;;5035585;28;20470;-73
2021/09/18 08:10:18;;;;;;;49.13;39.73;;;19.50;80.50;;;;;;5035346;28;20470;-73
2021/09/18 08:12:48;;;;;;;47.87;41.90;;;19.60;80.50;;;;;;5035309;28;20446;-73
2021/09/18 08:15:16;;;;;;;47.00;39.80;;;19.80;80.20;;;;;;5035515;28;20494;-73
2021/09/18 08:17:44;;;;;;;44.00;38.63;;;19.90;80.30;;;;;;5034927;28;20466;-73
2021/09/18 08:20:12;;;;;;;47.27;41.13;;;20.00;79.90;;;;;;5034883;28;20478;-73
2021/09/18 08:22:39;;;;;;;49.40;43.60;;;20.10;79.50;;;;;;5035056;28;20454;-73
2021/09/18 08:25:08;;;;;;;48.37;43.17;;;20.10;79.00;;;;;;5034709;28;20955;-73
2021/09/18 08:27:34;;;;;;;43.80;39.10;;;20.20;79.10;;;;;;5034733;28;20952;-73
2021/09/18 08:30:02;;;;;;;43.23;38.73;;;20.40;78.90;;;;;;5034842;28;20486;-73
2021/09/18 08:32:30;;;;;;;48.00;39.37;;;20.50;78.60;;;;;;5034478;28;20908;-74
2021/09/18 08:34:56;;;;;;;47.50;41.30;;;20.60;78.10;;;;;;5034769;28;20443;-74
2021/09/18 08:37:23;;;;;;;44.37;39.83;;;20.70;78.20;;;;;;5034412;28;20794;-74
2021/09/18 08:39:50;;;;;;;50.13;39.17;;;20.80;77.90;;;;;;5034481;28;20482;-74
2021/09/18 08:42:17;;;;;;;47.83;40.90;;;20.90;77.70;;;;;;5035513;28;20778;-74
2021/09/18 08:44:44;;;;;;;49.47;44.27;;;20.90;77.40;;;;;;5034622;28;20446;-74
2021/09/18 08:47:12;;;;;;;48.40;43.07;;;20.90;77.20;;;;;;5034550;28;20447;-74
2021/09/18 08:49:41;;;;;;;47.57;42.03;;;20.90;76.90;;;;;;5034497;28;20435;-74
2021/09/18 08:52:09;;;;;;;47.60;42.73;;;20.90;77.30;;;;;;5033978;28;20932;-74
2021/09/18 08:54:39;;;;;;;51.30;43.73;;;20.90;77.60;;;;;;5034185;28;20449;-74
2021/09/18 08:57:06;;;;;;;54.27;45.43;;;21.00;77.70;;;;;;5033653;28;20940;-74
2021/09/18 08:59:36;;;;;;;46.17;41.40;;;21.00;77.50;;;;;;5034299;28;20484;-74
2021/09/18 09:02:15;;;;;;;48.33;43.30;;;21.10;77.40;;;;;;5035434;28;20470;-74
2021/09/18 09:04:44;;;;;;;47.27;41.13;;;21.30;77.10;;;;;;5034574;28;20869;-74
2021/09/18 09:07:14;;;;;;;49.47;44.07;;;21.30;76.60;;;;;;5034052;28;20427;-75
2021/09/18 09:09:56;;;;;;;47.30;42.20;;;21.40;76.10;;;;;;5033896;28;20454;-74
2021/09/18 09:12:30;;;;;;;50.37;42.70;;;21.50;76.70;;;;;;5034272;28;20478;-75
2021/09/18 09:14:58;;;;;;;48.43;42.67;;;21.70;75.90;;;;;;5033889;28;20438;-75
2021/09/18 09:17:27;;;;;;;45.47;40.47;;;21.90;75.00;;;;;;5033734;28;20803;-75
2021/09/18 09:19:56;;;;;;;47.77;42.80;;;22.10;74.50;;;;;;5033830;28;20490;-75
2021/09/18 09:22:40;;;;;;;44.70;39.80;;;22.30;72.90;;;;;;5033898;28;20430;-75
2021/09/18 09:25:24;;;;;;;48.73;43.53;;;22.50;72.40;;;;;;5033975;28;20445;-74
2021/09/18 09:27:51;;;;;;;41.80;37.70;;;22.80;71.00;;;;;;5034490;28;20431;-74
2021/09/18 09:30:30;;;;;;;43.63;39.10;;;23.00;70.10;;;;;;5033647;28;20493;-75
2021/09/18 09:33:06;;;;;;;41.80;37.50;;;23.30;69.90;;;;;;5033354;28;20904;-74
2021/09/18 09:35:34;;;;;;;41.33;37.10;;;23.60;68.60;;;;;;5033528;28;20433;-74
2021/09/18 09:38:01;;;;;;;42.30;37.90;;;23.90;66.20;;;;;;5033669;28;20449;-74
2021/09/18 09:40:33;;;;;;;45.47;40.40;;;24.10;65.20;;;;;;5033319;28;20462;-74
2021/09/18 09:43:00;;;;;;;43.40;38.90;;;24.30;64.50;;;;;;5033820;28;20431;-74
2021/09/18 09:45:27;;;;;;;37.70;33.80;;;24.60;62.90;;;;;;5033262;28;21096;-75
2021/09/18 09:48:11;;;;;;;43.50;38.90;;;24.80;62.20;;;;;;5033685;28;20458;-76
2021/09/18 09:50:43;;;;;;;42.90;38.33;;;25.10;60.80;;;;;;5033479;28;20470;-76
2021/09/18 09:53:23;;;;;;;42.03;37.50;;;25.30;60.10;;;;;;5033288;28;20442;-76
2021/09/18 09:55:50;;;;;;;38.27;34.37;;;25.60;59.10;;;;;;5033431;28;20517;-76
2021/09/18 09:58:17;;;;;;;35.87;32.17;;;25.80;58.10;;;;;;5033283;28;20463;-76
2021/09/18 10:00:47;;;;;;;33.73;30.27;;;26.00;57.80;;;;;;5033561;28;20462;-76
2021/09/18 10:03:14;;;;;;;32.67;29.20;;;26.20;57.10;;;;;;5033599;28;20473;-78
2021/09/18 10:05:42;;;;;;;35.53;31.93;;;26.50;56.30;;;;;;5033650;28;20439;-78
2021/09/18 10:08:12;;;;;;;33.60;30.30;;;26.80;56.00;;;;;;5035852;28;20438;-77
2021/09/18 10:10:40;;;;;;;31.07;27.97;;;27.20;55.40;;;;;;5037588;28;20458;-75
2021/09/18 10:13:09;;;;;;;32.20;29.30;;;27.60;54.70;;;;;;5037543;28;20442;-76
2021/09/18 10:15:36;;;;;;;31.40;28.60;;;28.00;53.30;;;;;;5038929;28;20427;-77
2021/09/18 10:18:03;;;;;;;33.47;30.27;;;28.30;50.90;;;;;;5038695;28;21020;-78
2021/09/18 10:23:20;;;;;;;28.87;26.17;;;28.90;49.30;;;;;;5037925;28;20410;-76
2021/09/18 10:25:49;;;;;;;26.37;23.87;;;29.30;48.40;;;;;;5037566;28;20438;-76
2021/09/18 10:28:20;;;;;;;26.30;23.83;;;29.60;46.90;;;;;;5037360;28;20434;-75
2021/09/18 10:31:23;;;;;;;23.53;21.33;;;29.90;45.90;;;;;;5036824;28;20576;-75
2021/09/18 10:33:55;;;;;;;32.10;29.20;;;30.30;45.00;;;;;;5037368;28;20887;-76
2021/09/18 10:36:40;;;;;;;29.40;26.60;;;30.80;43.80;;;;;;5036806;28;20445;-76
2021/09/18 10:39:10;;;;;;;23.50;21.10;;;31.20;43.10;;;;;;5036952;28;20470;-76
2021/09/18 10:41:42;;;;;;;25.50;23.20;;;31.60;42.30;;;;;;5036975;28;20465;-75
2021/09/18 10:44:09;;;;;;;20.80;19.00;;;32.00;41.50;;;;;;5037072;28;20521;-76
2021/09/18 10:46:43;;;;;;;19.07;17.17;;;32.50;38.80;;;;;;5036968;28;20453;-75
2021/09/18 10:49:34;;;;;;;17.33;15.77;;;32.90;37.20;;;;;;5037742;28;20423;-77
2021/09/18 10:52:43;;;;;;;16.90;15.40;;;33.30;35.90;;;;;;5036750;28;20797;-76
2021/09/18 10:55:19;;;;;;;19.40;17.80;;;33.70;35.60;;;;;;5036737;28;20789;-75
2021/09/18 10:58:08;;;;;;;13.60;12.50;;;34.10;34.70;;;;;;5036503;28;20425;-74
2021/09/18 11:01:00;;;;;;;17.37;15.97;;;34.40;32.70;;;;;;5036615;28;20457;-76
2021/09/18 11:03:48;;;;;;;15.30;14.00;;;34.30;32.60;;;;;;5034575;28;20955;-75
2021/09/18 11:06:36;;;;;;;13.37;12.13;;;34.10;33.00;;;;;;5034718;28;20456;-76
2021/09/18 11:09:03;;;;;;;10.63;9.57;;;34.00;32.80;;;;;;5036398;28;20418;-76
2021/09/18 11:11:32;;;;;;;9.77;8.87;;;33.90;32.70;;;;;;5037314;28;20461;-78
2021/09/18 11:14:01;;;;;;;10.70;9.80;;;33.40;33.20;;;;;;5036370;28;20931;-75
2021/09/18 11:16:33;;;;;;;13.40;12.30;;;32.90;34.60;;;;;;5036511;28;20422;-75
2021/09/18 11:19:04;;;;;;;16.03;14.70;;;32.90;34.60;;;;;;5035897;28;20472;-76
2021/09/18 11:21:34;;;;;;;15.70;13.80;;;33.00;33.70;;;;;;5036370;28;20461;-76
2021/09/18 11:24:03;;;;;;;12.87;11.63;;;33.00;34.30;;;;;;5036422;28;20835;-77
2021/09/18 11:26:44;;;;;;;12.03;11.03;;;33.20;34.60;;;;;;5036536;28;20446;-77
2021/09/18 11:29:29;;;;;;;5.53;5.03;;;33.50;33.50;;;;;;5036328;28;20431;-77
2021/09/18 11:32:01;;;;;;;3.73;3.43;;;33.50;31.20;;;;;;5036277;28;20504;-77
2021/09/18 11:34:30;;;;;;;4.73;4.33;;;33.50;31.70;;;;;;5036219;28;20777;-75
2021/09/18 11:36:59;;;;;;;8.13;7.53;;;33.80;32.40;;;;;;5037648;28;20456;-76
2021/09/18 11:39:43;;;;;;;7.43;6.77;;;34.20;31.20;;;;;;5037260;28;21001;-77
2021/09/18 11:42:20;;;;;;;7.23;6.63;;;34.50;30.40;;;;;;5036697;28;20500;-77
2021/09/18 11:44:50;;;;;;;8.17;7.37;;;34.70;31.00;;;;;;5036303;28;20429;-77
2021/09/18 11:47:22;;;;;;;10.20;9.30;;;35.20;29.70;;;;;;5036183;28;20429;-76
2021/09/18 11:49:49;;;;;;;10.50;9.70;;;35.20;29.10;;;;;;5035932;28;20430;-76
2021/09/18 11:52:16;;;;;;;10.30;9.50;;;34.80;29.60;;;;;;5036078;28;20434;-77
2021/09/18 11:54:43;;;;;;;13.87;12.77;;;35.00;29.80;;;;;;5035320;28;20433;-77
2021/09/18 11:57:14;;;;;;;10.13;9.33;;;35.00;28.20;;;;;;5035668;28;20437;-77
2021/09/18 11:59:43;;;;;;;8.50;7.90;;;34.40;29.40;;;;;;5035380;28;20472;-76
2021/09/18 12:02:10;;;;;;;13.10;12.10;;;34.20;30.70;;;;;;5035584;28;20434;-77
2021/09/18 12:04:44;;;;;;;12.33;11.20;;;34.60;30.80;;;;;;5035604;28;20437;-76
2021/09/18 12:07:12;;;;;;;10.10;9.20;;;35.40;30.40;;;;;;5035618;28;20433;-77
2021/09/18 12:09:39;;;;;;;11.83;10.83;;;36.40;29.20;;;;;;5035493;28;20434;-77
2021/09/18 12:12:07;;;;;;;12.70;11.50;;;37.20;27.90;;;;;;5035312;28;20442;-77
2021/09/18 12:14:35;;;;;;;11.67;10.73;;;37.80;26.60;;;;;;5035291;28;20188;-77
2021/09/18 12:17:14;;;;;;;10.40;9.65;;;38.20;26.40;;;;;;5035672;28;20207;-78
2021/09/18 12:19:42;;;;;;;10.50;9.50;;;38.20;26.00;;;;;;5034775;28;20624;-77
2021/09/18 12:22:09;;;;;;;11.30;10.30;;;37.50;26.00;;;;;;5035461;28;20286;-77
2021/09/18 12:24:37;;;;;;;12.77;11.57;;;36.50;27.30;;;;;;5035042;28;20203;-77
2021/09/18 12:27:23;;;;;;;13.10;10.20;;;35.60;28.40;;;;;;5034738;28;20450;-77
2021/09/18 12:29:58;;;;;;;11.13;10.23;;;34.50;29.90;;;;;;5034413;28;20442;-75
2021/09/18 12:32:26;;;;;;;11.43;10.37;;;33.60;31.30;;;;;;5034952;28;20422;-75
2021/09/18 12:34:57;;;;;;;10.83;9.90;;;32.80;32.80;;;;;;5034610;28;20473;-75
2021/09/18 12:37:28;;;;;;;10.57;9.77;;;32.50;34.40;;;;;;5034499;28;20892;-76
2021/09/18 12:39:55;;;;;;;8.60;7.90;;;32.80;34.30;;;;;;5034625;28;20899;-77